Irving South's Hourly Summary for Saturday, May 12, 2018
Hour Temp
(f)
RH
(%)
Solar Rad.
(MJ/m2)
Rainfall
(in)
Wind
(mph)
5/12/2018 12:00 AM 77 55 0 0 2.72
5/12/2018 1:00 AM 76 57 0 0 4.32
5/12/2018 2:00 AM 75 61 0 0 4.12
5/12/2018 3:00 AM 73 69 0 0 3.26
5/12/2018 4:00 AM 72 75 0 0 2.79
5/12/2018 5:00 AM 73 76 0 0 3.58
5/12/2018 6:00 AM 72 76 0 0 1.69
5/12/2018 7:00 AM 72 81 0.02 0 2.62
5/12/2018 8:00 AM 72 81 0.27 0 2.44
5/12/2018 9:00 AM 73 76 0.57 0 4.26
5/12/2018 10:00 AM 76 65 1.57 0 5.75
5/12/2018 11:00 AM 79 56 2.64 0 6.34
5/12/2018 12:00 PM 81 50 3.15 0 6.61
5/12/2018 1:00 PM 83 46 3.45 0 6.16
5/12/2018 2:00 PM 85 41 3.39 0 4.56
5/12/2018 3:00 PM 87 37 3.47 0 4.86
5/12/2018 4:00 PM 88 36 3.17 0 5.09
5/12/2018 5:00 PM 89 37 2.44 0 3.46
5/12/2018 6:00 PM 88 37 1.65 0 3.5
5/12/2018 7:00 PM 87 39 0.78 0 2.64
5/12/2018 8:00 PM 85 41 0.28 0 1.74
5/12/2018 9:00 PM 82 47 0.01 0 0.69
5/12/2018 10:00 PM 80 53 0 0 0.22
5/12/2018 11:00 PM 78 58 0 0 0.39
Data Summary 79 56 26.86 0.00 3.49